Time;durP1;ratioP1;P1;durP2;ratioP2;P2;SDS_P1;SDS_P2;PMS_P1;PMS_P2;Temp;Humidity;BMP_temperature;BMP_pressure;BME280_temperature;BME280_humidity;BME280_pressure;Samples;Min_cycle;Max_cycle;Signal;HPM_P1;HPM_P2
2023/05/08 00:00:29;;;;;;;3.83;2.50;;;;;;;21.33;60.63;98809.75;2078760;28;20040;-52
2023/05/08 00:01:31;;;;;;;3.05;2.25;;;;;;;21.33;61.07;98812.47;2077349;28;20049;-53
2023/05/08 00:02:32;;;;;;;5.15;2.88;;;;;;;21.31;61.01;98817.22;2076960;28;20044;-52
2023/05/08 00:03:34;;;;;;;4.57;3.22;;;;;;;21.33;60.87;98809.75;2077761;28;20098;-53
2023/05/08 00:04:35;;;;;;;5.50;3.00;;;;;;;21.33;60.85;98818.66;2077145;28;20056;-51
2023/05/08 00:05:36;;;;;;;5.78;3.22;;;;;;;21.34;60.58;98814.94;2076782;28;20098;-52
2023/05/08 00:06:37;;;;;;;4.35;2.60;;;;;;;21.34;60.66;98809.56;2078392;28;20049;-53
2023/05/08 00:07:38;;;;;;;3.80;3.13;;;;;;;21.34;60.69;98819.50;2076838;28;20056;-52
2023/05/08 00:08:40;;;;;;;3.13;2.20;;;;;;;21.34;60.26;98809.56;2076443;28;20134;-53
2023/05/08 00:09:41;;;;;;;4.40;3.05;;;;;;;21.38;60.42;98809.97;2075549;28;20069;-54
2023/05/08 00:10:43;;;;;;;3.58;2.40;;;;;;;21.36;60.78;98807.44;2075671;28;20089;-54
2023/05/08 00:11:43;;;;;;;3.65;2.88;;;;;;;21.34;60.44;98806.00;2077128;28;20049;-53
2023/05/08 00:12:45;;;;;;;5.72;3.15;;;;;;;21.33;60.45;98801.66;2076860;28;20099;-54
2023/05/08 00:13:45;;;;;;;4.93;3.30;;;;;;;21.34;60.23;98809.56;2077089;28;20053;-51
2023/05/08 00:14:47;;;;;;;4.47;2.70;;;;;;;21.34;60.29;98803.31;2075608;28;20048;-53
2023/05/08 00:15:48;;;;;;;4.65;2.78;;;;;;;21.33;60.49;98804.34;2075570;28;20087;-54
2023/05/08 00:16:51;;;;;;;4.40;2.78;;;;;;;21.33;60.73;98804.34;2075283;28;20071;-55
2023/05/08 00:17:52;;;;;;;4.95;2.70;;;;;;;21.33;60.82;98807.06;2075898;28;20102;-51
2023/05/08 00:18:53;;;;;;;5.05;3.50;;;;;;;21.34;60.26;98808.69;2075782;28;20053;-52
2023/05/08 00:19:54;;;;;;;4.15;2.85;;;;;;;21.34;60.57;98808.69;2076543;28;20478;-51
2023/05/08 00:20:56;;;;;;;5.13;2.50;;;;;;;21.35;60.17;98803.09;2078642;28;20061;-55
2023/05/08 00:21:56;;;;;;;4.57;2.67;;;;;;;21.35;60.66;98799.59;2076571;28;20104;-55
2023/05/08 00:22:58;;;;;;;4.30;3.42;;;;;;;21.34;60.39;98797.91;2075756;28;20110;-50
2023/05/08 00:23:59;;;;;;;5.10;2.55;;;;;;;21.33;60.54;98805.19;2076635;28;20049;-51
2023/05/08 00:25:00;;;;;;;4.85;2.88;;;;;;;21.34;60.26;98796.06;2076783;28;20181;-52
2023/05/08 00:26:01;;;;;;;3.38;2.95;;;;;;;21.33;60.33;98807.88;2076880;28;20053;-53
2023/05/08 00:27:03;;;;;;;4.93;3.03;;;;;;;21.32;60.57;98803.53;2076837;28;21390;-52
2023/05/08 00:28:03;;;;;;;3.05;2.47;;;;;;;21.35;60.69;98804.97;2076829;28;20105;-54
2023/05/08 00:29:05;;;;;;;3.65;2.55;;;;;;;21.34;60.24;98803.31;2076755;28;20107;-51
2023/05/08 00:30:07;;;;;;;4.75;2.85;;;;;;;21.34;60.63;98795.22;2076579;28;20048;-52
2023/05/08 00:31:09;;;;;;;2.92;2.47;;;;;;;21.34;60.48;98800.59;2075283;28;20046;-54
2023/05/08 00:32:11;;;;;;;3.90;2.33;;;;;;;21.35;60.26;98799.59;2076711;28;20694;-53
2023/05/08 00:33:13;;;;;;;4.43;3.25;;;;;;;21.34;59.89;98800.59;2075970;28;20048;-53
2023/05/08 00:34:13;;;;;;;2.55;2.15;;;;;;;21.34;60.34;98797.91;2076866;28;20045;-50
2023/05/08 00:35:15;;;;;;;5.25;2.50;;;;;;;21.34;60.16;98792.50;2078183;28;20095;-53
2023/05/08 00:36:16;;;;;;;3.83;2.63;;;;;;;21.33;60.25;98797.09;2078147;28;20045;-53
2023/05/08 00:37:17;;;;;;;4.57;2.80;;;;;;;21.33;60.13;98791.69;2076524;28;20053;-53
2023/05/08 00:38:18;;;;;;;4.10;2.45;;;;;;;21.32;60.20;98792.75;2076276;28;20057;-52
2023/05/08 00:39:20;;;;;;;3.40;2.35;;;;;;;21.30;59.92;98792.13;2077760;28;20073;-52
2023/05/08 00:40:20;;;;;;;2.95;2.05;;;;;;;21.30;59.80;98794.00;2075822;28;20102;-53
2023/05/08 00:41:22;;;;;;;3.55;2.17;;;;;;;21.32;60.00;98789.22;2076910;28;20703;-54
2023/05/08 00:42:23;;;;;;;4.53;2.58;;;;;;;21.30;59.95;98792.13;2077190;28;20114;-51
2023/05/08 00:43:26;;;;;;;;;;;;;;;21.20;59.87;98795.31;2079466;28;20057;-53
2023/05/08 00:44:27;;;;;;;4.30;2.42;;;;;;;21.23;60.06;98790.50;2078437;28;19924;-54
2023/05/08 00:45:32;;;;;;;;;;;;;;;21.13;60.60;98788.31;2077322;28;20128;-55
2023/05/08 00:46:33;;;;;;;4.63;2.40;;;;;;;21.19;60.45;98790.94;2077126;28;19929;-51
2023/05/08 00:47:37;;;;;;;4.57;2.65;;;;;;;21.23;60.35;98787.81;2077049;28;20131;-56
2023/05/08 00:48:38;;;;;;;4.15;2.47;;;;;;;21.26;60.33;98787.41;2077916;28;20057;-53
2023/05/08 00:49:40;;;;;;;3.83;2.40;;;;;;;21.26;60.13;98793.63;2077833;28;20207;-53
2023/05/08 00:50:41;;;;;;;3.50;2.38;;;;;;;21.26;60.08;98787.41;2077009;28;20596;-52
2023/05/08 00:51:45;;;;;;;4.50;2.65;;;;;;;21.26;60.22;98785.53;2079905;28;20104;-55
2023/05/08 00:52:45;;;;;;;3.50;2.63;;;;;;;21.29;60.04;98786.97;2076738;28;20061;-54
2023/05/08 00:53:47;;;;;;;;;;;;;;;21.15;60.24;98783.53;2080031;28;20095;-54
2023/05/08 00:54:48;;;;;;;;;;;;;;;21.06;60.54;98788.34;2077149;28;19935;-53
2023/05/08 00:55:51;;;;;;;3.70;2.50;;;;;;;21.14;60.85;98782.66;2078784;28;19928;-51
2023/05/08 00:56:52;;;;;;;3.67;2.42;;;;;;;21.19;60.20;98790.13;2079935;28;20094;-53
2023/05/08 00:57:53;;;;;;;4.22;2.60;;;;;;;21.24;60.01;98786.78;2078601;28;20049;-52
2023/05/08 00:58:54;;;;;;;3.13;2.65;;;;;;;21.25;60.12;98783.84;2078687;28;20494;-50
2023/05/08 00:59:56;;;;;;;2.95;2.30;;;;;;;21.27;59.98;98786.34;2078737;28;20175;-52
2023/05/08 01:00:58;;;;;;;4.05;2.72;;;;;;;21.26;59.90;98788.22;2079212;28;20048;-52
2023/05/08 01:02:01;;;;;;;4.13;2.55;;;;;;;21.26;60.07;98787.41;2076574;28;20045;-52
2023/05/08 01:03:03;;;;;;;3.80;2.53;;;;;;;21.27;60.05;98789.88;2075808;28;20045;-53
2023/05/08 01:04:05;;;;;;;4.63;2.50;;;;;;;21.28;60.42;98788.00;2079403;28;20060;-53
2023/05/08 01:05:06;;;;;;;3.78;2.33;;;;;;;21.28;60.41;98794.22;2076977;28;20056;-51
2023/05/08 01:06:08;;;;;;;4.28;2.00;;;;;;;21.27;59.97;98780.97;2077780;28;20057;-52
2023/05/08 01:07:09;;;;;;;3.00;2.25;;;;;;;21.28;60.29;98786.13;2076970;28;20095;-51
2023/05/08 01:08:11;;;;;;;5.32;3.15;;;;;;;21.27;60.30;98789.03;2076697;28;20458;-52
2023/05/08 01:09:12;;;;;;;3.22;2.45;;;;;;;21.26;59.74;98782.84;2075533;28;20741;-51
2023/05/08 01:10:13;;;;;;;3.80;2.13;;;;;;;21.30;60.18;98791.31;2078682;28;20114;-53
2023/05/08 01:11:20;;;;;;;3.90;2.40;;;;;;;21.30;59.79;98788.63;2075274;28;20091;-54
2023/05/08 01:12:30;;;;;;;6.30;2.90;;;;;;;21.28;59.90;98794.22;2076252;28;20049;-49
2023/05/08 01:13:43;;;;;;;2.85;2.15;;;;;;;21.24;60.31;98784.91;2074596;28;20052;-55
2023/05/08 01:14:56;;;;;;;2.97;2.20;;;;;;;21.27;60.08;98797.16;2076570;28;20056;-58
2023/05/08 01:16:08;;;;;;;2.55;1.67;;;;;;;21.24;60.28;98789.50;2075136;28;20115;-50
2023/05/08 01:17:15;;;;;;;3.28;2.13;;;;;;;21.25;60.20;98789.25;2075783;28;20118;-51
2023/05/08 01:18:23;;;;;;;2.70;2.03;;;;;;;21.25;60.42;98794.66;2067594;28;20099;-52
2023/05/08 01:19:41;;;;;;;3.45;2.00;;;;;;;21.23;60.29;98796.75;2075528;28;20164;-52
2023/05/08 01:20:48;;;;;;;5.07;2.38;;;;;;;21.23;60.22;98793.22;2077208;28;20056;-50
2023/05/08 01:21:55;;;;;;;3.40;2.47;;;;;;;21.23;60.54;98798.59;2076962;28;20855;-55
2023/05/08 01:23:34;;;;;;;3.22;2.42;;;;;;;21.19;60.64;98788.25;2075963;28;20180;-50
2023/05/08 01:24:55;;;;;;;4.55;2.33;;;;;;;21.19;60.68;98798.22;2075993;28;20053;-54
2023/05/08 01:26:32;;;;;;;3.58;1.98;;;;;;;21.17;60.48;98793.06;2077772;28;20049;-50
2023/05/08 01:28:16;;;;;;;5.00;2.40;;;;;;;21.12;60.61;98784.78;2077120;28;20106;-56
2023/05/08 01:29:39;;;;;;;2.58;2.08;;;;;;;21.14;60.83;98788.06;2048176;28;20089;-58
2023/05/08 01:30:58;;;;;;;3.55;2.60;;;;;;;21.16;60.54;98794.06;2077953;28;20055;-49
2023/05/08 01:32:15;;;;;;;2.83;2.47;;;;;;;21.16;60.58;98787.88;2076945;28;20107;-57
2023/05/08 01:33:24;;;;;;;3.78;1.77;;;;;;;21.17;60.66;98792.19;2078322;28;20082;-53
2023/05/08 01:34:30;;;;;;;3.60;2.17;;;;;;;21.18;60.63;98788.47;2079421;28;20120;-56
2023/05/08 01:35:42;;;;;;;3.92;2.47;;;;;;;21.19;60.76;98792.81;2076091;28;20071;-57
2023/05/08 01:36:50;;;;;;;3.85;2.17;;;;;;;21.17;60.93;98792.19;2069930;28;20486;-48
2023/05/08 01:37:57;;;;;;;3.67;1.67;;;;;;;21.17;60.81;98795.75;2077213;28;20052;-51
2023/05/08 01:39:05;;;;;;;3.13;2.30;;;;;;;21.17;60.99;98792.19;2077795;28;20284;-55
2023/05/08 01:40:12;;;;;;;4.57;2.83;;;;;;;21.19;60.65;98793.66;2078063;28;20060;-55
2023/05/08 01:41:15;;;;;;;4.85;2.40;;;;;;;21.19;60.63;98790.94;2077957;28;20049;-52
2023/05/08 01:42:24;;;;;;;3.38;2.50;;;;;;;21.19;60.73;98788.25;2078248;28;20057;-56
2023/05/08 01:43:29;;;;;;;5.90;2.78;;;;;;;21.18;61.01;98788.47;2079621;28;20904;-48
2023/05/08 01:44:37;;;;;;;2.72;2.17;;;;;;;21.20;60.64;98784.53;2078371;28;21521;-48
2023/05/08 01:45:40;;;;;;;3.75;2.10;;;;;;;21.19;60.67;98788.25;2078766;28;20071;-57
2023/05/08 01:46:47;;;;;;;2.95;2.22;;;;;;;21.19;60.59;98785.56;2076988;28;20053;-56
2023/05/08 01:47:59;;;;;;;2.83;1.70;;;;;;;21.18;60.67;98783.09;2081476;28;20053;-56
2023/05/08 01:49:06;;;;;;;3.05;2.10;;;;;;;21.14;60.95;98782.66;2076935;28;20136;-52
2023/05/08 01:50:15;;;;;;;2.78;1.98;;;;;;;21.17;60.60;98781.41;2078853;28;20193;-51
2023/05/08 01:51:19;;;;;;;3.13;1.95;;;;;;;21.18;60.68;98775.00;2079560;28;20052;-47
2023/05/08 01:52:27;;;;;;;2.88;1.90;;;;;;;21.17;60.77;98776.88;2077633;28;20355;-58
2023/05/08 01:53:34;;;;;;;2.97;2.45;;;;;;;21.16;60.66;98769.81;2078641;28;20041;-52
2023/05/08 01:54:41;;;;;;;2.80;2.25;;;;;;;21.17;60.73;98767.94;2078477;28;20045;-56
2023/05/08 01:55:44;;;;;;;2.95;1.90;;;;;;;21.16;60.95;98769.81;2076766;28;20073;-53
2023/05/08 01:56:47;;;;;;;3.78;2.10;;;;;;;21.15;60.90;98768.16;2078421;28;20056;-52
2023/05/08 01:57:53;;;;;;;3.47;2.63;;;;;;;21.16;60.69;98771.69;2078710;28;20144;-52
2023/05/08 01:58:57;;;;;;;3.42;2.05;;;;;;;21.17;60.77;98766.09;2077281;28;20176;-51
2023/05/08 02:00:03;;;;;;;3.53;2.25;;;;;;;21.17;60.74;98770.63;2079555;28;20056;-52
2023/05/08 02:01:04;;;;;;;3.60;2.13;;;;;;;21.17;60.56;98779.56;2079229;28;20107;-52
2023/05/08 02:02:08;;;;;;;3.05;2.25;;;;;;;21.18;60.58;98775.81;2079145;28;20457;-54
2023/05/08 02:03:13;;;;;;;2.47;2.20;;;;;;;21.19;59.82;98774.75;2078479;28;20091;-51
2023/05/08 02:04:16;;;;;;;2.20;1.58;;;;;;;21.18;60.13;98773.13;2078887;28;20056;-49
2023/05/08 02:05:19;;;;;;;4.13;2.63;;;;;;;21.20;60.05;98772.88;2076440;28;20473;-54
2023/05/08 02:06:23;;;;;;;2.50;1.92;;;;;;;21.19;60.34;98768.53;2077761;28;20102;-54
2023/05/08 02:07:24;;;;;;;5.00;2.20;;;;;;;21.20;60.21;98771.03;2076452;28;20102;-53
2023/05/08 02:08:28;;;;;;;3.42;2.22;;;;;;;21.19;60.20;98769.38;2077721;28;20080;-54
2023/05/08 02:09:31;;;;;;;3.53;2.00;;;;;;;21.20;60.11;98771.03;2078285;28;20045;-51
2023/05/08 02:10:34;;;;;;;2.03;1.75;;;;;;;21.18;60.40;98766.91;2078139;28;20057;-53
2023/05/08 02:11:37;;;;;;;3.15;2.22;;;;;;;21.18;59.67;98759.63;2077702;28;20625;-52
2023/05/08 02:12:40;;;;;;;3.97;2.35;;;;;;;21.18;59.77;98767.72;2077717;28;20056;-53
2023/05/08 02:13:43;;;;;;;2.47;1.73;;;;;;;21.18;59.86;98773.13;2076513;28;20142;-53
2023/05/08 02:14:47;;;;;;;4.70;2.85;;;;;;;21.18;60.25;98767.72;2078315;28;21254;-51
2023/05/08 02:15:49;;;;;;;3.22;1.98;;;;;;;21.18;60.32;98769.59;2079293;28;20571;-51
2023/05/08 02:16:54;;;;;;;2.47;2.10;;;;;;;21.17;60.48;98768.78;2076969;28;21031;-53
2023/05/08 02:17:56;;;;;;;2.88;2.22;;;;;;;21.17;60.33;98765.22;2076710;28;20132;-52
2023/05/08 02:19:01;;;;;;;3.33;2.03;;;;;;;21.18;60.02;98756.13;2079661;28;20442;-53
2023/05/08 02:20:03;;;;;;;3.58;2.30;;;;;;;21.18;59.85;98765.03;2079155;28;20057;-56
2023/05/08 02:21:06;;;;;;;3.47;2.28;;;;;;;21.18;59.96;98756.94;2078516;28;22303;-51
2023/05/08 02:22:08;;;;;;;4.90;2.55;;;;;;;21.18;59.94;98753.41;2077651;28;20037;-53
2023/05/08 02:23:11;;;;;;;3.70;2.03;;;;;;;21.16;60.56;98756.31;2077663;28;20049;-53
2023/05/08 02:24:13;;;;;;;3.35;2.03;;;;;;;21.15;60.45;98753.84;2077292;28;20657;-50
2023/05/08 02:25:16;;;;;;;3.47;2.28;;;;;;;21.16;60.40;98753.63;2078194;28;20950;-53
2023/05/08 02:26:17;;;;;;;3.15;2.22;;;;;;;21.16;60.78;98756.31;2076253;28;20053;-53
2023/05/08 02:27:21;;;;;;;3.35;2.10;;;;;;;21.15;60.75;98762.78;2076648;28;20131;-52
2023/05/08 02:28:23;;;;;;;2.47;1.83;;;;;;;21.15;60.46;98759.25;2077088;28;20057;-51
2023/05/08 02:29:25;;;;;;;4.22;2.30;;;;;;;21.13;60.90;98759.44;2077120;28;20743;-52
2023/05/08 02:30:27;;;;;;;3.35;2.00;;;;;;;21.12;61.04;98762.38;2079940;28;20126;-52
2023/05/08 02:31:30;;;;;;;5.40;2.10;;;;;;;21.11;60.97;98761.53;2078959;28;20056;-50
2023/05/08 02:32:32;;;;;;;4.47;2.42;;;;;;;21.11;60.88;98764.22;2075310;28;20060;-52
2023/05/08 02:33:34;;;;;;;2.38;2.00;;;;;;;21.12;61.05;98759.69;2077529;28;20968;-51
2023/05/08 02:34:38;;;;;;;4.55;3.35;;;;;;;21.12;60.99;98765.91;2077820;28;20049;-50
2023/05/08 02:35:41;;;;;;;2.20;1.55;;;;;;;21.11;61.22;98764.22;2077311;28;20048;-50
2023/05/08 02:36:42;;;;;;;2.40;1.70;;;;;;;21.12;61.17;98765.91;2078347;28;20229;-52
2023/05/08 02:37:47;;;;;;;5.28;2.15;;;;;;;21.12;61.03;98763.22;2076636;28;20059;-52
2023/05/08 02:38:51;;;;;;;5.38;2.53;;;;;;;21.10;60.85;98765.28;2077491;28;20095;-50
2023/05/08 02:39:58;;;;;;;4.57;2.17;;;;;;;21.11;60.88;98760.72;2077669;28;20499;-54
2023/05/08 02:41:02;;;;;;;4.30;2.17;;;;;;;21.10;61.29;98764.47;2075580;28;20041;-51
2023/05/08 02:42:04;;;;;;;2.42;1.90;;;;;;;21.10;61.01;98756.38;2076690;28;20057;-51
2023/05/08 02:43:06;;;;;;;3.33;2.15;;;;;;;21.10;61.14;98765.28;2076149;28;20056;-50
2023/05/08 02:44:08;;;;;;;2.28;1.83;;;;;;;21.09;60.75;98760.94;2076417;28;20049;-52
2023/05/08 02:45:11;;;;;;;3.75;2.47;;;;;;;21.11;60.82;98760.72;2075140;28;20045;-52
2023/05/08 02:46:16;;;;;;;2.88;2.05;;;;;;;21.10;61.04;98765.28;2078245;28;20045;-53
2023/05/08 02:47:21;;;;;;;2.45;1.92;;;;;;;21.11;60.82;98761.53;2076933;28;20053;-53
2023/05/08 02:48:28;;;;;;;3.60;2.45;;;;;;;21.11;60.86;98756.13;2075350;28;20052;-53
2023/05/08 02:49:36;;;;;;;2.10;1.67;;;;;;;21.09;60.92;98754.69;2077377;28;20102;-52
2023/05/08 02:50:51;;;;;;;3.10;1.95;;;;;;;21.06;61.21;98756.00;2078526;28;20099;-53
2023/05/08 02:51:56;;;;;;;4.82;2.35;;;;;;;21.05;61.02;98751.63;2079112;28;20049;-52
2023/05/08 02:53:03;;;;;;;1.70;1.50;;;;;;;21.08;61.14;98753.88;2078662;28;20049;-54
2023/05/08 02:54:09;;;;;;;2.45;1.73;;;;;;;21.09;61.19;98747.47;2078357;28;20082;-55
2023/05/08 02:55:21;;;;;;;1.75;1.63;;;;;;;21.09;61.06;98750.16;2078861;28;20099;-53
2023/05/08 02:56:31;;;;;;;1.98;1.67;;;;;;;21.05;60.94;98743.53;2078745;28;20040;-52
2023/05/08 02:57:43;;;;;;;2.60;1.80;;;;;;;21.06;60.93;98747.03;2079327;28;20840;-52
2023/05/08 02:58:52;;;;;;;2.17;1.65;;;;;;;21.05;61.05;98743.53;2077768;28;20138;-51
2023/05/08 02:59:59;;;;;;;3.17;1.95;;;;;;;21.05;61.08;98738.13;2078730;28;20455;-54
2023/05/08 03:01:05;;;;;;;2.20;1.88;;;;;;;21.07;60.84;98737.94;2078265;28;20110;-52
2023/05/08 03:02:12;;;;;;;2.88;2.08;;;;;;;21.06;61.07;98742.50;2079597;28;20053;-49
2023/05/08 03:03:19;;;;;;;2.85;1.63;;;;;;;21.07;61.10;98737.94;2080072;28;20068;-51
2023/05/08 03:04:29;;;;;;;3.22;1.73;;;;;;;21.07;61.08;98733.34;2078273;28;20058;-51
2023/05/08 03:05:31;;;;;;;2.03;1.52;;;;;;;21.06;61.27;98737.09;2078820;28;20110;-55
2023/05/08 03:06:38;;;;;;;3.90;1.85;;;;;;;21.08;60.90;98735.00;2077348;28;20076;-50
2023/05/08 03:07:41;;;;;;;2.70;1.63;;;;;;;21.08;60.92;98737.69;2077566;28;20061;-54
2023/05/08 03:08:45;;;;;;;2.63;2.22;;;;;;;21.05;61.18;98732.75;2080141;28;20426;-52
2023/05/08 03:09:49;;;;;;;2.88;2.00;;;;;;;21.06;61.00;98731.72;2082086;28;20049;-50
2023/05/08 03:10:55;;;;;;;2.95;2.42;;;;;;;21.08;61.01;98734.19;2080997;28;20076;-50
2023/05/08 03:12:03;;;;;;;2.25;2.00;;;;;;;21.07;61.08;98738.75;2078670;28;20053;-53
2023/05/08 03:13:07;;;;;;;1.88;1.63;;;;;;;21.06;61.03;98739.81;2079202;28;20063;-55
2023/05/08 03:14:12;;;;;;;1.92;1.63;;;;;;;21.06;61.18;98737.09;2079973;28;20126;-54
2023/05/08 03:15:19;;;;;;;2.80;1.60;;;;;;;21.05;60.87;98737.31;2079839;28;20483;-56
2023/05/08 03:16:24;;;;;;;3.70;1.92;;;;;;;21.05;61.39;98740.84;2078840;28;20897;-49
2023/05/08 03:17:27;;;;;;;2.35;2.03;;;;;;;21.04;61.00;98736.50;2077412;28;20057;-53
2023/05/08 03:18:34;;;;;;;2.00;1.77;;;;;;;21.04;60.93;98733.78;2076592;28;20096;-53
2023/05/08 03:19:38;;;;;;;2.00;1.65;;;;;;;21.04;61.07;98739.19;2077594;28;20106;-51
2023/05/08 03:20:46;;;;;;;2.53;1.50;;;;;;;21.06;61.18;98741.66;2076806;28;20116;-50
2023/05/08 03:21:50;;;;;;;3.45;1.75;;;;;;;21.04;61.18;98731.09;2076675;28;20518;-48
2023/05/08 03:22:54;;;;;;;2.70;1.67;;;;;;;21.04;61.15;98736.50;2077655;28;20045;-51
2023/05/08 03:23:58;;;;;;;2.17;2.00;;;;;;;21.03;61.20;98737.50;2077786;28;20053;-53
2023/05/08 03:25:03;;;;;;;2.22;1.70;;;;;;;21.04;61.14;98739.19;2078281;28;20057;-54
2023/05/08 03:26:05;;;;;;;2.38;1.80;;;;;;;21.07;61.08;98733.34;2076015;28;20056;-53
2023/05/08 03:27:08;;;;;;;3.58;2.08;;;;;;;21.07;60.92;98732.53;2076855;28;20134;-55
2023/05/08 03:28:10;;;;;;;3.03;2.20;;;;;;;21.09;61.30;98735.81;2078174;28;20041;-55
2023/05/08 03:29:14;;;;;;;2.13;1.85;;;;;;;21.08;60.98;98735.00;2075690;28;20049;-54
2023/05/08 03:30:16;;;;;;;2.35;1.88;;;;;;;21.07;60.78;98732.53;2076196;28;20048;-57
2023/05/08 03:31:20;;;;;;;3.55;2.30;;;;;;;21.05;61.01;98734.63;2075585;28;20053;-51
2023/05/08 03:32:23;;;;;;;2.28;1.95;;;;;;;21.04;61.05;98728.41;2078046;28;20076;-53
2023/05/08 03:33:26;;;;;;;3.28;1.98;;;;;;;21.04;61.31;98732.97;2074911;28;20057;-53
2023/05/08 03:34:29;;;;;;;3.70;2.20;;;;;;;21.03;61.28;98731.31;2076243;28;20491;-53
2023/05/08 03:35:31;;;;;;;3.28;2.45;;;;;;;21.03;61.26;98736.69;2074185;28;20063;-56
2023/05/08 03:36:33;;;;;;;2.55;1.88;;;;;;;21.03;60.92;98740.22;2074270;28;20057;-53
2023/05/08 03:37:35;;;;;;;4.28;2.03;;;;;;;21.03;61.17;98748.31;2074530;28;20180;-57
2023/05/08 03:38:37;;;;;;;2.05;1.58;;;;;;;21.04;61.25;98749.97;2073293;28;20053;-50
2023/05/08 03:39:38;;;;;;;1.88;1.58;;;;;;;21.04;61.21;98752.66;2073902;28;20049;-53
2023/05/08 03:40:41;;;;;;;;;;;;;;;20.95;61.41;98754.81;2076606;28;20041;-51
2023/05/08 03:41:42;;;;;;;1.90;1.60;;;;;;;20.97;61.16;98759.97;2074993;28;20001;-55
2023/05/08 03:42:44;;;;;;;1.90;1.27;;;;;;;21.00;61.19;98754.13;2076175;28;20622;-51
2023/05/08 03:43:45;;;;;;;1.85;1.67;;;;;;;21.02;61.14;98760.16;2075710;28;20848;-57
2023/05/08 03:44:48;;;;;;;3.50;1.88;;;;;;;21.03;61.17;98756.38;2074783;28;20531;-56
2023/05/08 03:45:50;;;;;;;2.20;1.42;;;;;;;21.04;61.23;98757.25;2074608;28;20087;-56
2023/05/08 03:46:56;;;;;;;3.55;2.00;;;;;;;21.06;61.36;98747.91;2076169;28;20053;-53
2023/05/08 03:47:58;;;;;;;3.08;1.98;;;;;;;21.02;61.19;98757.44;2074402;28;20107;-53
2023/05/08 03:49:03;;;;;;;1.52;1.40;;;;;;;21.05;61.13;98757.00;2075260;28;20080;-52
2023/05/08 03:50:07;;;;;;;3.17;1.70;;;;;;;21.06;61.18;98753.28;2073635;28;20059;-57
2023/05/08 03:51:09;;;;;;;5.22;1.88;;;;;;;21.05;61.22;98757.00;2077239;28;20060;-51
2023/05/08 03:52:11;;;;;;;2.35;1.90;;;;;;;21.05;61.09;98754.31;2076906;28;20053;-57
2023/05/08 03:53:14;;;;;;;2.55;2.08;;;;;;;21.05;61.06;98753.50;2076564;28;20048;-47
2023/05/08 03:54:15;;;;;;;1.50;1.40;;;;;;;21.05;61.20;98762.41;2075101;28;24202;-56
2023/05/08 03:55:16;;;;;;;1.80;1.50;;;;;;;21.03;60.88;98763.66;2076703;28;20102;-56
2023/05/08 03:56:17;;;;;;;2.17;1.70;;;;;;;21.07;61.32;98763.03;2077127;28;20053;-47
2023/05/08 03:57:19;;;;;;;1.80;1.63;;;;;;;21.07;61.23;98767.59;2073998;28;20123;-52
2023/05/08 03:58:24;;;;;;;2.97;1.75;;;;;;;21.09;60.89;98771.72;2073816;28;20053;-53
2023/05/08 03:59:35;;;;;;;2.15;1.60;;;;;;;21.09;60.86;98769.03;2075896;28;20045;-57
2023/05/08 04:00:46;;;;;;;2.38;2.10;;;;;;;21.10;60.98;98769.84;2076427;28;20052;-51
2023/05/08 04:01:54;;;;;;;3.88;2.22;;;;;;;21.06;60.79;98766.78;2076150;28;20041;-49
2023/05/08 04:03:08;;;;;;;2.15;1.95;;;;;;;21.03;60.90;98767.19;2077801;28;20052;-53
2023/05/08 04:04:17;;;;;;;2.55;1.90;;;;;;;21.00;61.08;98770.31;2074871;28;20056;-52
2023/05/08 04:05:29;;;;;;;2.30;1.58;;;;;;;20.98;61.44;98773.25;2077011;28;20053;-50
2023/05/08 04:06:37;;;;;;;2.92;1.92;;;;;;;21.02;61.31;98773.63;2074823;28;20107;-49
2023/05/08 04:07:46;;;;;;;2.55;1.70;;;;;;;21.02;61.28;98768.22;2077815;28;20045;-49
2023/05/08 04:09:01;;;;;;;2.10;1.70;;;;;;;21.07;61.04;98773.00;2076422;28;20618;-58
2023/05/08 04:10:08;;;;;;;3.42;1.52;;;;;;;21.02;61.39;98772.81;2076670;28;20056;-57
2023/05/08 04:11:16;;;;;;;2.10;1.88;;;;;;;21.02;61.37;98773.63;2075477;28;20060;-55
2023/05/08 04:12:19;;;;;;;2.53;2.00;;;;;;;21.02;61.20;98776.31;2076791;28;20087;-52
2023/05/08 04:13:27;;;;;;;2.55;1.85;;;;;;;21.04;61.45;98771.56;2074436;28;20060;-57
2023/05/08 04:14:33;;;;;;;1.38;1.27;;;;;;;21.05;61.08;98775.88;2075856;28;20111;-56
2023/05/08 04:15:39;;;;;;;3.95;1.95;;;;;;;21.05;60.94;98783.97;2076272;28;20067;-54
2023/05/08 04:16:48;;;;;;;1.48;1.38;;;;;;;21.04;61.31;98781.50;2076933;28;20117;-54
2023/05/08 04:17:54;;;;;;;2.05;1.60;;;;;;;21.06;61.14;98776.72;2076686;28;20064;-55
2023/05/08 04:19:00;;;;;;;1.85;1.65;;;;;;;21.08;60.99;98782.72;2075176;28;20049;-49
2023/05/08 04:20:04;;;;;;;2.90;2.00;;;;;;;21.02;61.21;98776.31;2076680;28;20055;-52
2023/05/08 04:21:10;;;;;;;2.08;1.83;;;;;;;21.05;61.11;98773.19;2078404;28;20114;-56
2023/05/08 04:22:12;;;;;;;2.13;1.40;;;;;;;21.06;61.02;98780.25;2075404;28;20045;-51
2023/05/08 04:23:16;;;;;;;2.17;1.90;;;;;;;21.06;61.34;98774.88;2076827;28;20057;-49
2023/05/08 04:24:19;;;;;;;1.85;1.42;;;;;;;21.06;61.08;98779.41;2075381;28;20152;-57
2023/05/08 04:25:21;;;;;;;2.00;1.80;;;;;;;21.05;61.17;98778.59;2075313;28;20102;-56
2023/05/08 04:26:22;;;;;;;1.88;1.40;;;;;;;21.06;61.26;98787.50;2073369;28;20069;-47
2023/05/08 04:27:24;;;;;;;2.15;1.92;;;;;;;21.10;61.10;98786.03;2075396;28;20061;-55
2023/05/08 04:28:26;;;;;;;2.92;1.90;;;;;;;21.11;61.00;98779.59;2076605;28;20049;-59
2023/05/08 04:29:27;;;;;;;1.85;1.50;;;;;;;21.11;60.87;98788.50;2075579;28;20057;-56
2023/05/08 04:30:29;;;;;;;3.50;1.65;;;;;;;21.13;61.11;98785.59;2075587;28;21431;-51
2023/05/08 04:31:30;;;;;;;3.78;1.40;;;;;;;21.11;60.81;98785.81;2073062;28;20086;-55
2023/05/08 04:32:33;;;;;;;2.25;1.58;;;;;;;21.10;60.82;98784.16;2077747;28;20121;-52
2023/05/08 04:33:35;;;;;;;1.95;1.52;;;;;;;21.09;60.73;98785.22;2076704;28;20053;-52
2023/05/08 04:34:37;;;;;;;2.35;1.63;;;;;;;21.11;60.87;98785.81;2075904;28;20131;-50
2023/05/08 04:35:38;;;;;;;2.10;1.50;;;;;;;21.12;60.88;98784.78;2073912;28;20443;-51
2023/05/08 04:36:40;;;;;;;3.42;1.92;;;;;;;21.12;60.91;98786.66;2076554;28;20048;-56
2023/05/08 04:37:41;;;;;;;2.20;1.60;;;;;;;21.12;60.71;98789.34;2075459;28;20917;-54
2023/05/08 04:38:43;;;;;;;2.63;1.98;;;;;;;21.13;60.55;98783.72;2073991;28;20104;-51
2023/05/08 04:39:49;;;;;;;2.38;1.75;;;;;;;21.13;60.55;98788.31;2074494;28;20049;-57
2023/05/08 04:40:51;;;;;;;2.53;2.10;;;;;;;21.13;60.94;98786.41;2075728;28;20084;-55
2023/05/08 04:41:54;;;;;;;2.30;1.98;;;;;;;21.13;60.83;98788.31;2072437;28;20454;-55
2023/05/08 04:42:55;;;;;;;3.42;1.73;;;;;;;21.13;61.05;98782.91;2072561;28;20061;-56
2023/05/08 04:43:56;;;;;;;4.07;1.83;;;;;;;21.14;60.68;98793.47;2076978;28;20121;-48
2023/05/08 04:44:58;;;;;;;2.13;1.75;;;;;;;21.13;60.54;98783.72;2076960;28;20057;-56
2023/05/08 04:45:58;;;;;;;2.03;1.42;;;;;;;21.12;60.83;98792.88;2077624;28;20048;-51
2023/05/08 04:47:00;;;;;;;3.17;2.00;;;;;;;21.10;60.82;98792.25;2075596;28;20057;-56
2023/05/08 04:48:01;;;;;;;2.10;1.52;;;;;;;21.03;61.12;98796.84;2078614;28;20091;-54
2023/05/08 04:49:02;;;;;;;;;;;;;;;20.90;61.36;98791.53;2076580;28;20041;-54
2023/05/08 04:50:03;;;;;;;2.03;1.83;;;;;;;20.92;61.74;98794.81;2077086;28;20065;-51
2023/05/08 04:51:05;;;;;;;3.58;1.98;;;;;;;20.93;61.68;98796.50;2077366;28;20045;-52
2023/05/08 04:52:06;;;;;;;4.38;2.10;;;;;;;20.95;61.38;98799.81;2076809;28;21275;-49
2023/05/08 04:53:08;;;;;;;1.85;1.55;;;;;;;21.00;61.58;98791.88;2077133;28;20057;-49
2023/05/08 04:54:09;;;;;;;3.70;1.83;;;;;;;21.05;61.56;98796.63;2078546;28;20044;-53
2023/05/08 04:55:12;;;;;;;2.00;1.67;;;;;;;21.00;62.22;98791.06;2079062;28;20103;-51
2023/05/08 04:56:12;;;;;;;1.85;1.70;;;;;;;20.95;61.97;98789.84;2078852;28;20514;-51
2023/05/08 04:57:14;;;;;;;3.85;1.58;;;;;;;20.98;61.77;98789.41;2079565;28;20060;-53
2023/05/08 04:58:15;;;;;;;2.88;2.20;;;;;;;20.97;62.46;98793.13;2077763;28;20119;-51
2023/05/08 04:59:16;;;;;;;;;;;;;;;20.86;62.62;98801.09;2078766;28;20045;-53
2023/05/08 05:00:18;;;;;;;3.13;2.13;;;;;;;20.91;62.07;98790.50;2079448;28;19979;-58
2023/05/08 05:01:19;;;;;;;2.40;1.52;;;;;;;20.97;62.09;98790.44;2079631;28;20060;-50
2023/05/08 05:02:20;;;;;;;2.88;1.42;;;;;;;21.03;61.90;98790.63;2079689;28;20098;-54
2023/05/08 05:03:22;;;;;;;1.70;1.60;;;;;;;21.00;61.90;98794.56;2078307;28;20053;-53